Soledade, Brazil
Current Conditions -  °F | °C
As of 5:00 AM on Friday 24 Oct 2014 (Local Time) from SBKG Reporting Station
Light Rain Light Rain  
Wind Chill: 68°   Ceiling: 400
Heat Index: 68°   Visibility: 3mi
Dew Point: 68°   Wind: 9mph
Humidity: 100%   Direction: 140°SE
Pressure: NA   Gusts: NA
Location:  7.06°S, 36.36°W
Report Text: SBKG 240800Z 14008KT 5000 -RA BR BKN004 BKN010 BKN070 20/20 Q1016
Loading
Personal Weather Stations






























Interactive Weather Map
Tropical Storm Tracking
New forecast layout! Learn more

10-Day Weather Forecast

Advertisements
Track Severe Weather on mobile